createdAt,value
2018-04-14T00:00:21.801Z,3.60
2018-04-14T00:01:21.857Z,3.30
2018-04-14T00:02:21.916Z,3.50
2018-04-14T00:03:21.972Z,3.40
2018-04-14T00:04:22.090Z,3.20
2018-04-14T00:05:22.096Z,2.80
2018-04-14T00:06:22.146Z,4.00
2018-04-14T00:07:22.203Z,4.40
2018-04-14T00:08:22.260Z,4.10
2018-04-14T00:09:22.321Z,4.00
2018-04-14T00:10:22.376Z,4.20
2018-04-14T00:11:22.433Z,4.10
2018-04-14T00:12:22.492Z,3.70
2018-04-14T00:13:22.549Z,3.90
2018-04-14T00:14:22.608Z,3.70
2018-04-14T00:15:22.664Z,3.70
2018-04-14T00:16:22.724Z,4.30
2018-04-14T00:17:22.779Z,5.10
2018-04-14T00:18:22.839Z,3.90
2018-04-14T00:19:22.893Z,3.00
2018-04-14T00:20:22.951Z,2.60
2018-04-14T00:21:23.009Z,2.70
2018-04-14T00:22:23.072Z,3.00
2018-04-14T00:23:23.123Z,2.70
2018-04-14T00:24:23.185Z,3.00
2018-04-14T00:25:23.241Z,2.30
2018-04-14T00:26:23.297Z,3.10
2018-04-14T00:27:23.354Z,2.70
2018-04-14T00:28:23.413Z,2.80
2018-04-14T00:29:23.471Z,2.90
2018-04-14T00:30:23.527Z,3.00
2018-04-14T00:31:23.584Z,3.00
2018-04-14T00:32:23.643Z,3.10
2018-04-14T00:33:23.699Z,3.20
2018-04-14T00:34:23.758Z,3.30
2018-04-14T00:35:23.814Z,3.60
2018-04-14T00:36:23.872Z,3.00
2018-04-14T00:37:23.933Z,2.90
2018-04-14T00:38:23.987Z,3.00
2018-04-14T00:39:24.045Z,2.60
2018-04-14T00:40:24.103Z,2.90
2018-04-14T00:41:24.159Z,2.60
2018-04-14T00:42:24.218Z,2.50
2018-04-14T00:43:24.272Z,2.80
2018-04-14T00:44:24.330Z,3.10
2018-04-14T00:45:24.389Z,2.70
2018-04-14T00:46:24.447Z,2.10
2018-04-14T00:47:24.503Z,2.30
2018-04-14T00:48:24.561Z,2.20
2018-04-14T00:49:24.818Z,2.20
2018-04-14T00:50:24.678Z,2.40
2018-04-14T00:51:24.733Z,2.80
2018-04-14T00:52:24.790Z,2.50
2018-04-14T00:53:24.848Z,2.80
2018-04-14T00:54:24.906Z,2.70
2018-04-14T00:55:24.962Z,3.50
2018-04-14T00:56:25.025Z,3.10
2018-04-14T00:57:25.078Z,3.30
2018-04-14T00:58:25.137Z,2.90
2018-04-14T00:59:25.222Z,3.30
2018-04-14T01:00:25.249Z,2.30
2018-04-14T01:01:25.306Z,1.80
2018-04-14T01:02:25.366Z,1.70
2018-04-14T01:03:25.427Z,1.80
2018-04-14T01:04:25.516Z,1.60
2018-04-14T01:05:25.537Z,2.00
2018-04-14T01:06:25.594Z,1.60
2018-04-14T01:07:25.650Z,1.60
2018-04-14T01:08:25.708Z,1.70
2018-04-14T01:09:25.766Z,1.60
2018-04-14T01:10:25.823Z,1.50
2018-04-14T01:11:25.881Z,1.80
2018-04-14T01:12:25.938Z,1.30
2018-04-14T01:13:25.996Z,1.80
2018-04-14T01:14:26.053Z,2.10
2018-04-14T01:15:26.109Z,1.80
2018-04-14T01:16:26.166Z,1.80
2018-04-14T01:17:26.225Z,2.50
2018-04-14T01:18:26.282Z,1.70
2018-04-14T01:19:26.339Z,1.70
2018-04-14T01:20:26.396Z,1.80
2018-04-14T01:21:26.453Z,1.60
2018-04-14T01:22:26.512Z,1.50
2018-04-14T01:23:26.568Z,1.60
2018-04-14T01:24:26.624Z,1.60
2018-04-14T01:25:26.682Z,1.40
2018-04-14T01:26:26.738Z,1.60
2018-04-14T01:27:26.797Z,1.60
2018-04-14T01:28:26.853Z,1.60
2018-04-14T01:29:27.063Z,1.50
2018-04-14T01:30:26.970Z,1.80
2018-04-14T01:31:27.024Z,1.50
2018-04-14T01:32:27.112Z,1.60
2018-04-14T01:33:27.138Z,1.50
2018-04-14T01:34:27.196Z,1.50
2018-04-14T01:35:27.251Z,1.40
2018-04-14T01:36:27.308Z,1.70
2018-04-14T01:37:27.367Z,1.30
2018-04-14T01:38:27.423Z,1.60
2018-04-14T01:39:27.479Z,1.40
2018-04-14T01:40:27.536Z,1.40
2018-04-14T01:41:27.594Z,1.50
2018-04-14T01:42:27.650Z,1.40
2018-04-14T01:43:27.706Z,1.30
2018-04-14T01:44:27.763Z,1.90
2018-04-14T01:45:27.822Z,1.60
2018-04-14T01:46:27.878Z,1.50
2018-04-14T01:47:27.937Z,1.50
2018-04-14T01:48:27.991Z,1.40
2018-04-14T01:49:28.049Z,1.60
2018-04-14T01:50:28.106Z,1.40
2018-04-14T01:51:28.162Z,1.40
2018-04-14T01:52:28.218Z,1.30
2018-04-14T01:53:28.280Z,1.70
2018-04-14T01:54:28.965Z,1.60
2018-04-14T01:55:28.389Z,1.60
2018-04-14T01:56:28.445Z,1.90
2018-04-14T01:57:28.504Z,1.60
2018-04-14T01:58:28.561Z,1.50
2018-04-14T01:59:28.616Z,1.60
2018-04-14T02:00:28.675Z,1.60
2018-04-14T02:01:28.730Z,1.60
2018-04-14T02:02:28.789Z,1.70
2018-04-14T02:03:28.842Z,1.70
2018-04-14T02:04:28.900Z,1.90
2018-04-14T02:05:28.958Z,1.60
2018-04-14T02:06:29.014Z,1.50
2018-04-14T02:07:29.070Z,1.40
2018-04-14T02:08:29.127Z,1.70
2018-04-14T02:09:29.185Z,1.50
2018-04-14T02:10:29.241Z,1.50
2018-04-14T02:11:29.298Z,1.70
2018-04-14T02:12:29.355Z,1.70
2018-04-14T02:13:29.411Z,1.30
2018-04-14T02:14:29.467Z,1.40
2018-04-14T02:15:29.523Z,1.60
2018-04-14T02:16:29.580Z,1.70
2018-04-14T02:17:29.637Z,1.50
2018-04-14T02:18:29.697Z,1.50
2018-04-14T02:19:30.136Z,1.40
2018-04-14T02:20:29.808Z,1.50
2018-04-14T02:21:29.865Z,1.70
2018-04-14T02:22:29.924Z,1.50
2018-04-14T02:23:29.977Z,1.60
2018-04-14T02:24:30.035Z,1.70
2018-04-14T02:25:30.091Z,1.80
2018-04-14T02:26:30.148Z,1.60
2018-04-14T02:27:30.204Z,1.60
2018-04-14T02:28:30.262Z,1.70
2018-04-14T02:29:30.318Z,1.70
2018-04-14T02:30:30.375Z,1.90
2018-04-14T02:31:30.431Z,1.60
2018-04-14T02:32:30.487Z,1.50
2018-04-14T02:33:30.544Z,1.40
2018-04-14T02:34:30.600Z,1.70
2018-04-14T02:35:30.676Z,1.50
2018-04-14T02:36:30.713Z,1.80
2018-04-14T02:37:30.771Z,1.60
2018-04-14T02:38:30.826Z,1.70
2018-04-14T02:39:30.883Z,1.90
2018-04-14T02:40:30.940Z,1.80
2018-04-14T02:41:30.997Z,1.60
2018-04-14T02:42:31.057Z,1.70
2018-04-14T02:43:31.109Z,1.70
2018-04-14T02:44:31.165Z,1.70
2018-04-14T02:45:31.224Z,2.00
2018-04-14T02:46:31.278Z,1.80
2018-04-14T02:47:31.335Z,1.80
2018-04-14T02:48:31.391Z,1.70
2018-04-14T02:49:31.448Z,2.10
2018-04-14T02:50:31.504Z,1.70
2018-04-14T02:51:31.560Z,1.70
2018-04-14T02:52:31.619Z,1.80
2018-04-14T02:53:31.674Z,2.00
2018-04-14T02:54:31.730Z,1.60
2018-04-14T02:55:31.792Z,1.70
2018-04-14T02:56:31.846Z,1.90
2018-04-14T02:57:31.900Z,1.70
2018-04-14T02:58:31.957Z,1.70
2018-04-14T02:59:32.013Z,1.70
2018-04-14T03:00:32.069Z,1.90
2018-04-14T03:01:32.127Z,1.50
2018-04-14T03:02:32.183Z,1.60
2018-04-14T03:03:32.238Z,1.60
2018-04-14T03:04:32.296Z,1.50
2018-04-14T03:05:32.352Z,1.90
2018-04-14T03:06:32.409Z,1.30
2018-04-14T03:07:32.464Z,1.80
2018-04-14T03:08:32.520Z,1.60
2018-04-14T03:09:32.577Z,1.70
2018-04-14T03:10:32.633Z,1.70
2018-04-14T03:11:32.691Z,1.80
2018-04-14T03:12:32.745Z,1.90
2018-04-14T03:13:32.803Z,1.90
2018-04-14T03:14:32.858Z,1.70
2018-04-14T03:15:32.914Z,1.60
2018-04-14T03:16:32.985Z,1.80
2018-04-14T03:17:33.027Z,1.60
2018-04-14T03:18:33.083Z,1.90
2018-04-14T03:19:33.141Z,1.70
2018-04-14T03:20:33.195Z,1.90
2018-04-14T03:21:33.253Z,2.00
2018-04-14T03:22:33.308Z,2.00
2018-04-14T03:23:33.364Z,2.00
2018-04-14T03:24:33.420Z,2.00
2018-04-14T03:25:33.477Z,1.70
2018-04-14T03:26:33.535Z,2.10
2018-04-14T03:27:33.589Z,1.80
2018-04-14T03:28:33.646Z,1.90
2018-04-14T03:29:33.709Z,1.90
2018-04-14T03:30:33.759Z,1.80
2018-04-14T03:31:33.813Z,1.90
2018-04-14T03:32:33.871Z,1.80
2018-04-14T03:33:33.927Z,1.60
2018-04-14T03:34:33.983Z,1.80
2018-04-14T03:35:34.038Z,1.80
2018-04-14T03:36:34.095Z,1.90
2018-04-14T03:37:34.152Z,1.90
2018-04-14T03:38:34.208Z,2.00
2018-04-14T03:39:34.264Z,1.80
2018-04-14T03:40:34.320Z,2.10
2018-04-14T03:41:34.375Z,2.10
2018-04-14T03:42:34.433Z,1.80
2018-04-14T03:43:34.488Z,1.90
2018-04-14T03:44:34.544Z,1.90
2018-04-14T03:45:34.602Z,2.10
2018-04-14T03:46:34.656Z,2.20
2018-04-14T03:47:34.711Z,2.10
2018-04-14T03:48:34.768Z,2.10
2018-04-14T03:49:34.825Z,1.90
2018-04-14T03:50:34.881Z,2.40
2018-04-14T03:51:34.935Z,1.90
2018-04-14T03:52:34.993Z,2.30
2018-04-14T03:53:35.061Z,2.00
2018-04-14T03:54:35.120Z,2.10
2018-04-14T03:55:35.164Z,2.20
2018-04-14T03:56:35.225Z,2.00
2018-04-14T03:57:35.292Z,2.10
2018-04-14T03:58:35.350Z,2.10
2018-04-14T03:59:35.403Z,2.20
2018-04-14T04:00:35.465Z,2.10
2018-04-14T04:01:35.502Z,2.40
2018-04-14T04:02:35.553Z,2.30
2018-04-14T04:03:35.608Z,2.70
2018-04-14T04:04:35.667Z,2.20
2018-04-14T04:05:35.722Z,2.00
2018-04-14T04:06:35.781Z,2.50
2018-04-14T04:07:35.834Z,2.10
2018-04-14T04:08:35.888Z,2.30
2018-04-14T04:09:35.944Z,2.20
2018-04-14T04:10:36.002Z,2.30
2018-04-14T04:11:36.056Z,2.60
2018-04-14T04:12:36.118Z,2.40
2018-04-14T04:13:36.168Z,2.40
2018-04-14T04:14:36.476Z,2.80
2018-04-14T04:15:36.289Z,3.00
2018-04-14T04:16:36.337Z,2.60
2018-04-14T04:17:36.393Z,2.60
2018-04-14T04:18:36.448Z,2.50
2018-04-14T04:19:36.506Z,2.20
2018-04-14T04:20:36.564Z,2.40
2018-04-14T04:21:36.615Z,2.50
2018-04-14T04:22:36.671Z,2.70
2018-04-14T04:23:36.726Z,2.70
2018-04-14T04:24:36.783Z,2.80
2018-04-14T04:25:36.839Z,2.70
2018-04-14T04:26:37.433Z,2.50
2018-04-14T04:27:36.950Z,2.50
2018-04-14T04:28:37.010Z,2.60
2018-04-14T04:29:37.064Z,2.80
2018-04-14T04:30:37.120Z,2.60
2018-04-14T04:31:37.174Z,2.70
2018-04-14T04:32:37.231Z,2.80
2018-04-14T04:33:37.287Z,2.60
2018-04-14T04:34:37.342Z,2.80
2018-04-14T04:35:37.399Z,2.40
2018-04-14T04:36:37.455Z,2.80
2018-04-14T04:37:37.762Z,2.80
2018-04-14T04:38:37.566Z,2.60
2018-04-14T04:39:37.623Z,3.10
2018-04-14T04:40:37.684Z,3.30
2018-04-14T04:41:37.733Z,3.10
2018-04-14T04:42:37.794Z,2.60
2018-04-14T04:43:37.846Z,2.90
2018-04-14T04:44:37.902Z,3.40
2018-04-14T04:45:37.959Z,2.90
2018-04-14T04:46:38.013Z,2.80
2018-04-14T04:47:38.071Z,3.40
2018-04-14T04:48:38.129Z,2.70
2018-04-14T04:49:38.181Z,2.90
2018-04-14T04:50:38.236Z,3.00
2018-04-14T04:51:38.293Z,3.20
2018-04-14T04:52:38.350Z,2.80
2018-04-14T04:53:38.408Z,2.90
2018-04-14T04:54:38.461Z,2.60
2018-04-14T04:55:38.515Z,2.60
2018-04-14T04:56:38.571Z,2.80
2018-04-14T04:57:38.627Z,2.80
2018-04-14T04:58:38.683Z,2.40
2018-04-14T04:59:38.739Z,2.80
2018-04-14T05:00:38.794Z,3.20
2018-04-14T05:01:38.851Z,2.80
2018-04-14T05:02:38.908Z,2.90
2018-04-14T05:03:38.960Z,2.90
2018-04-14T05:04:39.017Z,3.40
2018-04-14T05:05:39.074Z,3.30
2018-04-14T05:06:39.135Z,3.20
2018-04-14T05:07:39.184Z,3.20
2018-04-14T05:08:39.241Z,3.40
2018-04-14T05:09:39.295Z,2.80
2018-04-14T05:10:39.353Z,3.00
2018-04-14T05:11:39.407Z,3.10
2018-04-14T05:12:39.464Z,3.30
2018-04-14T05:13:39.519Z,3.00
2018-04-14T05:14:39.575Z,2.50
2018-04-14T05:15:39.630Z,2.70
2018-04-14T05:16:39.687Z,3.40
2018-04-14T05:17:39.745Z,3.20
2018-04-14T05:18:39.799Z,3.70
2018-04-14T05:19:39.855Z,3.30
2018-04-14T05:20:39.910Z,3.40
2018-04-14T05:21:39.966Z,3.10
2018-04-14T05:22:40.022Z,3.10
2018-04-14T05:23:40.078Z,3.00
2018-04-14T05:24:40.132Z,3.40
2018-04-14T05:25:40.194Z,3.40
2018-04-14T05:26:40.246Z,3.50
2018-04-14T05:27:40.300Z,3.80
2018-04-14T05:28:40.356Z,3.40
2018-04-14T05:29:40.413Z,3.40
2018-04-14T05:30:40.468Z,3.60
2018-04-14T05:31:40.524Z,3.10
2018-04-14T05:32:40.579Z,3.30
2018-04-14T05:33:40.634Z,3.00
2018-04-14T05:34:40.691Z,2.90
2018-04-14T05:35:40.746Z,3.20
2018-04-14T05:36:40.813Z,3.30
2018-04-14T05:37:40.859Z,3.40
2018-04-14T05:38:40.921Z,2.90
2018-04-14T05:39:40.972Z,3.20
2018-04-14T05:40:41.349Z,3.30
2018-04-14T05:41:41.407Z,3.10
2018-04-14T05:42:41.141Z,3.40
2018-04-14T05:43:41.194Z,3.50
2018-04-14T05:44:41.249Z,3.70
2018-04-14T05:45:41.306Z,3.90
2018-04-14T05:46:41.364Z,3.60
2018-04-14T05:47:41.417Z,3.20
2018-04-14T05:48:41.474Z,3.90
2018-04-14T05:49:41.534Z,4.00
2018-04-14T05:50:41.588Z,3.50
2018-04-14T05:51:41.642Z,4.10
2018-04-14T05:52:41.698Z,3.80
2018-04-14T05:53:41.753Z,3.80
2018-04-14T05:54:41.819Z,3.90
2018-04-14T05:55:41.866Z,3.70
2018-04-14T05:56:41.922Z,3.40
2018-04-14T05:57:41.977Z,3.60
2018-04-14T05:58:42.035Z,3.50
2018-04-14T05:59:42.090Z,3.70
2018-04-14T06:00:42.149Z,3.60
2018-04-14T06:01:42.202Z,3.40
2018-04-14T06:02:42.258Z,4.00
2018-04-14T06:03:42.315Z,3.60
2018-04-14T06:04:42.373Z,4.10
2018-04-14T06:05:42.428Z,3.40
2018-04-14T06:06:42.485Z,3.80
2018-04-14T06:07:42.540Z,3.40
2018-04-14T06:08:42.597Z,3.80
2018-04-14T06:09:42.653Z,3.60
2018-04-14T06:10:42.710Z,3.50
2018-04-14T06:11:42.766Z,3.70
2018-04-14T06:12:42.821Z,3.80
2018-04-14T06:13:42.877Z,4.00
2018-04-14T06:14:42.937Z,3.80
2018-04-14T06:15:42.990Z,3.90
2018-04-14T06:16:43.047Z,4.20
2018-04-14T06:17:43.106Z,3.90
2018-04-14T06:18:43.162Z,3.90
2018-04-14T06:19:43.216Z,3.50
2018-04-14T06:20:43.273Z,3.50
2018-04-14T06:21:43.330Z,3.50
2018-04-14T06:22:43.386Z,3.80
2018-04-14T06:23:43.442Z,3.70
2018-04-14T06:24:43.499Z,3.70
2018-04-14T06:25:43.555Z,4.00
2018-04-14T06:26:43.613Z,4.40
2018-04-14T06:27:43.668Z,4.60
2018-04-14T06:28:43.729Z,4.20
2018-04-14T06:29:43.782Z,4.20
2018-04-14T06:30:43.838Z,4.30
2018-04-14T06:31:43.895Z,4.10
2018-04-14T06:32:43.954Z,4.20
2018-04-14T06:33:44.018Z,4.20
2018-04-14T06:34:44.066Z,4.10
2018-04-14T06:35:44.122Z,4.30
2018-04-14T06:36:44.177Z,3.80
2018-04-14T06:37:44.237Z,4.10
2018-04-14T06:38:44.293Z,4.10
2018-04-14T06:39:44.971Z,4.50
2018-04-14T06:40:44.405Z,4.20
2018-04-14T06:41:44.464Z,4.20
2018-04-14T06:42:44.519Z,4.20
2018-04-14T06:43:44.576Z,3.80
2018-04-14T06:44:44.634Z,4.50
2018-04-14T06:45:44.696Z,4.10
2018-04-14T06:46:44.748Z,3.80
2018-04-14T06:47:44.805Z,4.30
2018-04-14T06:48:44.863Z,3.80
2018-04-14T06:49:44.918Z,4.00
2018-04-14T06:50:44.976Z,3.90
2018-04-14T06:51:45.034Z,4.10
2018-04-14T06:52:45.090Z,4.30
2018-04-14T06:53:45.148Z,4.10
2018-04-14T06:54:45.206Z,4.30
2018-04-14T06:55:45.263Z,4.00
2018-04-14T06:56:45.321Z,4.20
2018-04-14T06:57:45.377Z,4.90
2018-04-14T06:58:45.436Z,4.30
2018-04-14T06:59:45.491Z,4.60
2018-04-14T07:00:45.572Z,3.90
2018-04-14T07:01:45.606Z,4.30
2018-04-14T07:02:45.665Z,4.80
2018-04-14T07:03:45.721Z,4.00
2018-04-14T07:04:45.779Z,4.90
2018-04-14T07:05:45.837Z,4.50
2018-04-14T07:06:45.895Z,4.30
2018-04-14T07:07:45.950Z,4.30
2018-04-14T07:08:46.010Z,4.00
2018-04-14T07:09:46.068Z,4.00
2018-04-14T07:10:46.126Z,4.30
2018-04-14T07:11:46.181Z,4.30
2018-04-14T07:12:46.243Z,4.10
2018-04-14T07:13:46.298Z,4.50
2018-04-14T07:14:46.356Z,4.10
2018-04-14T07:15:46.417Z,4.30
2018-04-14T07:16:46.471Z,4.50
2018-04-14T07:17:46.536Z,4.60
2018-04-14T07:18:46.588Z,4.00
2018-04-14T07:19:46.644Z,4.10
2018-04-14T07:20:46.747Z,4.00
2018-04-14T07:21:46.762Z,4.20
2018-04-14T07:22:46.819Z,4.20
2018-04-14T07:23:46.878Z,4.20
2018-04-14T07:24:46.935Z,3.80
2018-04-14T07:25:46.994Z,4.00
2018-04-14T07:26:47.109Z,4.20
2018-04-14T07:27:47.109Z,4.00
2018-04-14T07:28:47.169Z,3.80
2018-04-14T07:29:47.229Z,3.80
2018-04-14T07:30:47.285Z,4.10
2018-04-14T07:31:47.343Z,3.70
2018-04-14T07:32:47.403Z,3.90
2018-04-14T07:33:47.462Z,3.70
2018-04-14T07:34:47.519Z,3.40
2018-04-14T07:35:47.576Z,3.50
2018-04-14T07:36:47.634Z,3.40
2018-04-14T07:37:47.693Z,3.60
2018-04-14T07:38:47.751Z,3.90
2018-04-14T07:39:47.810Z,3.20
2018-04-14T07:40:47.867Z,3.40
2018-04-14T07:41:47.928Z,3.40
2018-04-14T07:42:47.989Z,3.40
2018-04-14T07:43:48.043Z,3.40
2018-04-14T07:44:48.102Z,3.30
2018-04-14T07:45:48.162Z,3.20
2018-04-14T07:46:48.221Z,3.40
2018-04-14T07:47:48.278Z,2.80
2018-04-14T07:48:48.337Z,3.10
2018-04-14T07:49:48.395Z,3.10
2018-04-14T07:50:48.454Z,3.10
2018-04-14T07:51:48.514Z,3.00
2018-04-14T07:52:48.573Z,3.40
2018-04-14T07:53:48.630Z,3.20
2018-04-14T07:54:48.689Z,3.00
2018-04-14T07:55:48.747Z,2.90
2018-04-14T07:56:48.807Z,2.60
2018-04-14T07:57:48.867Z,3.20
2018-04-14T07:58:48.925Z,2.80
2018-04-14T07:59:48.987Z,3.10
2018-04-14T08:00:49.042Z,3.40
2018-04-14T08:01:49.103Z,3.00
2018-04-14T08:02:49.161Z,3.30
2018-04-14T08:03:49.220Z,3.20
2018-04-14T08:04:49.278Z,3.10
2018-04-14T08:05:49.340Z,3.00
2018-04-14T08:06:49.396Z,3.40
2018-04-14T08:07:49.456Z,3.40
2018-04-14T08:08:49.516Z,3.00
2018-04-14T08:09:49.576Z,2.80
2018-04-14T08:10:49.634Z,3.10
2018-04-14T08:11:49.697Z,3.10
2018-04-14T08:12:49.753Z,3.10
2018-04-14T08:13:49.815Z,2.80
2018-04-14T08:14:49.872Z,2.90
2018-04-14T08:15:49.932Z,2.80
2018-04-14T08:16:49.992Z,3.30
2018-04-14T08:17:50.051Z,3.00
2018-04-14T08:18:50.109Z,2.90
2018-04-14T08:19:50.168Z,3.20
2018-04-14T08:20:50.229Z,3.20
2018-04-14T08:21:50.290Z,2.60
2018-04-14T08:22:50.348Z,3.10
2018-04-14T08:23:50.407Z,3.30
2018-04-14T08:24:50.473Z,3.30
2018-04-14T08:25:50.527Z,3.30
2018-04-14T08:26:50.590Z,3.40
2018-04-14T08:27:50.647Z,3.20
2018-04-14T08:28:50.713Z,3.30
2018-04-14T08:29:50.768Z,3.30
2018-04-14T08:30:50.830Z,3.40
2018-04-14T08:31:50.886Z,3.10
2018-04-14T08:32:50.948Z,3.10
2018-04-14T08:33:51.011Z,3.20
2018-04-14T08:34:51.069Z,3.30
2018-04-14T08:35:51.127Z,3.00
2018-04-14T08:36:51.191Z,3.00
2018-04-14T08:37:51.251Z,2.80
2018-04-14T08:38:51.332Z,2.80
2018-04-14T08:39:51.368Z,3.00
2018-04-14T08:40:51.466Z,2.60
2018-04-14T08:41:51.489Z,2.80
2018-04-14T08:42:51.555Z,3.30
2018-04-14T08:43:51.616Z,2.80
2018-04-14T08:44:51.675Z,3.00
2018-04-14T08:45:51.731Z,3.00
2018-04-14T08:46:51.792Z,2.70
2018-04-14T08:47:51.851Z,3.20
2018-04-14T08:48:51.916Z,3.00
2018-04-14T08:49:51.973Z,2.90
2018-04-14T08:50:52.034Z,2.60
2018-04-14T08:51:52.093Z,2.60
2018-04-14T08:52:52.156Z,3.00
2018-04-14T08:53:52.230Z,3.00
2018-04-14T08:54:52.278Z,2.90
2018-04-14T08:55:52.337Z,3.00
2018-04-14T08:56:52.397Z,2.70
2018-04-14T08:57:52.459Z,2.70
2018-04-14T08:58:52.521Z,2.90
2018-04-14T08:59:52.581Z,2.70
2018-04-14T09:00:52.642Z,2.90
2018-04-14T09:01:52.719Z,2.80
2018-04-14T09:02:53.315Z,2.60
2018-04-14T09:03:52.826Z,2.70
2018-04-14T09:04:52.886Z,2.80
2018-04-14T09:05:52.948Z,2.60
2018-04-14T09:06:53.010Z,2.40
2018-04-14T09:07:53.071Z,2.40
2018-04-14T09:08:53.132Z,2.50
2018-04-14T09:09:53.193Z,2.50
2018-04-14T09:10:53.256Z,2.30
2018-04-14T09:11:53.319Z,2.20
2018-04-14T09:12:53.380Z,2.30
2018-04-14T09:13:53.441Z,2.40
2018-04-14T09:14:53.503Z,2.30
2018-04-14T09:15:53.563Z,2.30
2018-04-14T09:16:53.625Z,2.40
2018-04-14T09:17:53.688Z,2.20
2018-04-14T09:18:53.750Z,2.00
2018-04-14T09:19:53.813Z,2.00
2018-04-14T09:20:53.871Z,2.60
2018-04-14T09:21:53.934Z,2.90
2018-04-14T09:22:53.997Z,4.00
2018-04-14T09:23:54.059Z,3.80
2018-04-14T09:24:54.121Z,2.20
2018-04-14T09:25:54.186Z,3.00
2018-04-14T09:26:54.246Z,3.70
2018-04-14T09:27:54.306Z,3.10
2018-04-14T09:28:54.368Z,3.80
2018-04-14T09:29:54.432Z,2.60
2018-04-14T09:30:54.553Z,2.00
2018-04-14T09:31:54.555Z,3.10
2018-04-14T09:32:54.619Z,2.60
2018-04-14T09:33:54.679Z,2.30
2018-04-14T09:34:54.744Z,3.20
2018-04-14T09:35:54.803Z,2.90
2018-04-14T09:36:54.867Z,2.20
2018-04-14T09:37:54.930Z,2.40
2018-04-14T09:38:54.993Z,2.50
2018-04-14T09:39:55.054Z,2.60
2018-04-14T09:40:55.117Z,2.10
2018-04-14T09:41:55.179Z,1.90
2018-04-14T09:42:55.257Z,1.80
2018-04-14T09:43:55.304Z,3.30
2018-04-14T09:44:55.366Z,2.50
2018-04-14T09:45:55.430Z,2.70
2018-04-14T09:46:55.493Z,1.80
2018-04-14T09:47:55.554Z,1.90
2018-04-14T09:48:55.618Z,2.00
2018-04-14T09:49:55.679Z,1.90
2018-04-14T09:50:55.744Z,1.90
2018-04-14T09:51:55.806Z,1.70
2018-04-14T09:52:55.870Z,2.50
2018-04-14T09:53:55.930Z,2.10
2018-04-14T09:54:55.993Z,1.80
2018-04-14T09:55:56.060Z,2.00
2018-04-14T09:56:56.119Z,2.10
2018-04-14T09:57:56.181Z,2.00
2018-04-14T09:58:56.245Z,2.10
2018-04-14T09:59:56.306Z,2.00
2018-04-14T10:00:56.370Z,1.70
2018-04-14T10:01:56.682Z,1.60
2018-04-14T10:02:56.525Z,1.80
2018-04-14T10:03:56.558Z,1.70
2018-04-14T10:04:56.621Z,1.80
2018-04-14T10:05:56.684Z,1.70
2018-04-14T10:06:56.748Z,1.90
2018-04-14T10:07:56.813Z,1.60
2018-04-14T10:08:56.874Z,1.60
2018-04-14T10:09:56.939Z,2.00
2018-04-14T10:10:57.001Z,1.80
2018-04-14T10:11:57.084Z,1.80
2018-04-14T10:12:57.126Z,2.20
2018-04-14T10:13:57.189Z,2.70
2018-04-14T10:14:57.295Z,3.40
2018-04-14T10:15:57.320Z,3.00
2018-04-14T10:16:57.380Z,2.50
2018-04-14T10:17:57.444Z,2.50
2018-04-14T10:18:57.511Z,2.60
2018-04-14T10:19:57.572Z,3.40
2018-04-14T10:20:57.635Z,2.70
2018-04-14T10:21:57.697Z,2.10
2018-04-14T10:22:57.760Z,1.70
2018-04-14T10:23:57.823Z,2.80
2018-04-14T10:24:57.886Z,2.20
2018-04-14T10:25:57.952Z,1.80
2018-04-14T10:26:58.015Z,1.60
2018-04-14T10:27:58.079Z,1.90
2018-04-14T10:28:58.143Z,1.80
2018-04-14T10:29:58.206Z,1.70
2018-04-14T10:30:58.269Z,1.70
2018-04-14T10:31:58.333Z,2.00
2018-04-14T10:32:58.397Z,1.60
2018-04-14T10:33:58.462Z,1.60
2018-04-14T10:34:58.526Z,1.80
2018-04-14T10:35:58.590Z,1.70
2018-04-14T10:36:58.655Z,1.80
2018-04-14T10:37:58.860Z,1.60
2018-04-14T10:38:58.785Z,1.50
2018-04-14T10:39:58.850Z,1.50
2018-04-14T10:40:58.916Z,1.40
2018-04-14T10:41:58.981Z,1.80
2018-04-14T10:42:59.056Z,1.50
2018-04-14T10:43:59.367Z,1.70
2018-04-14T10:44:59.181Z,1.90
2018-04-14T10:45:59.250Z,1.40
2018-04-14T10:46:59.317Z,1.30
2018-04-14T10:47:59.385Z,1.40
2018-04-14T10:48:59.458Z,1.30
2018-04-14T10:49:59.522Z,1.50
2018-04-14T10:50:59.592Z,1.60
2018-04-14T10:51:59.661Z,1.30
2018-04-14T10:52:59.729Z,1.60
2018-04-14T10:53:59.799Z,1.60
2018-04-14T10:54:59.869Z,1.40
2018-04-14T10:55:59.940Z,1.50
2018-04-14T10:57:00.007Z,1.60
2018-04-14T10:58:00.078Z,1.40
2018-04-14T10:59:00.152Z,1.30
2018-04-14T11:00:00.218Z,1.40
2018-04-14T11:01:00.289Z,1.20
2018-04-14T11:02:00.360Z,1.40
2018-04-14T11:03:00.431Z,1.60
2018-04-14T11:04:00.502Z,1.50
2018-04-14T11:05:00.575Z,1.40
2018-04-14T11:06:00.649Z,1.90
2018-04-14T11:07:00.718Z,1.60
2018-04-14T11:08:00.788Z,1.50
2018-04-14T11:09:00.861Z,1.30
2018-04-14T11:10:00.933Z,1.10
2018-04-14T11:11:01.012Z,1.30
2018-04-14T11:12:01.328Z,1.20
2018-04-14T11:13:01.151Z,1.30
2018-04-14T11:14:01.223Z,1.20
2018-04-14T11:15:01.295Z,1.50
2018-04-14T11:16:01.367Z,2.00
2018-04-14T11:17:01.439Z,1.50
2018-04-14T11:18:01.512Z,1.20
2018-04-14T11:19:01.585Z,1.20
2018-04-14T11:20:01.657Z,1.10
2018-04-14T11:21:01.731Z,1.20
2018-04-14T11:22:01.805Z,1.20
2018-04-14T11:23:01.878Z,1.60
2018-04-14T11:24:01.950Z,1.70
2018-04-14T11:25:02.025Z,1.50
2018-04-14T11:26:02.101Z,1.40
2018-04-14T11:27:02.168Z,1.30
2018-04-14T11:28:02.247Z,1.20
2018-04-14T11:29:02.314Z,1.20
2018-04-14T11:30:02.389Z,1.30
2018-04-14T11:31:02.462Z,1.30
2018-04-14T11:32:02.532Z,1.20
2018-04-14T11:33:02.607Z,1.50
2018-04-14T11:34:02.681Z,1.20
2018-04-14T11:35:02.752Z,1.40
2018-04-14T11:36:02.824Z,1.30
2018-04-14T11:37:02.899Z,1.40
2018-04-14T11:38:02.970Z,1.30
2018-04-14T11:39:03.045Z,1.90
2018-04-14T11:40:03.119Z,1.90
2018-04-14T11:41:03.190Z,1.30
2018-04-14T11:42:03.264Z,1.10
2018-04-14T11:43:03.340Z,1.20
2018-04-14T11:44:03.409Z,1.10
2018-04-14T11:45:03.482Z,1.20
2018-04-14T11:46:03.554Z,1.10
2018-04-14T11:47:03.628Z,1.20
2018-04-14T11:48:03.701Z,1.30
2018-04-14T11:49:03.774Z,1.10
2018-04-14T11:50:03.847Z,1.20
2018-04-14T11:51:03.920Z,1.30
2018-04-14T11:52:03.991Z,1.00
2018-04-14T11:53:04.064Z,1.10
2018-04-14T11:54:04.138Z,1.20
2018-04-14T11:55:04.211Z,1.10
2018-04-14T11:56:04.282Z,1.10
2018-04-14T11:57:04.606Z,1.50
2018-04-14T11:58:04.430Z,1.30
2018-04-14T11:59:04.501Z,1.30
2018-04-14T12:00:04.573Z,1.40
2018-04-14T12:01:04.647Z,2.00
2018-04-14T12:02:04.721Z,1.80
2018-04-14T12:03:04.793Z,1.80
2018-04-14T12:04:04.865Z,1.20
2018-04-14T12:05:04.939Z,1.50
2018-04-14T12:06:05.013Z,1.40
2018-04-14T12:07:05.085Z,1.40
2018-04-14T12:08:05.157Z,1.20
2018-04-14T12:09:05.229Z,1.50
2018-04-14T12:10:05.303Z,1.30
2018-04-14T12:11:05.377Z,0.90
2018-04-14T12:12:05.449Z,0.80
2018-04-14T12:13:05.520Z,1.00
2018-04-14T12:14:05.597Z,1.10
2018-04-14T12:15:05.670Z,1.10
2018-04-14T12:16:05.743Z,1.10
2018-04-14T12:17:05.820Z,1.10
2018-04-14T12:18:05.884Z,1.20
2018-04-14T12:19:05.962Z,1.20
2018-04-14T12:20:06.035Z,1.00
2018-04-14T12:21:06.107Z,1.00
2018-04-14T12:22:06.178Z,1.00
2018-04-14T12:23:06.250Z,1.30
2018-04-14T12:24:06.320Z,1.20
2018-04-14T12:25:06.395Z,1.70
2018-04-14T12:26:06.470Z,1.40
2018-04-14T12:27:06.541Z,1.20
2018-04-14T12:28:06.612Z,1.20
2018-04-14T12:29:06.686Z,0.90
2018-04-14T12:30:06.758Z,1.20
2018-04-14T12:31:06.833Z,0.80
2018-04-14T12:32:06.905Z,1.00
2018-04-14T12:33:06.978Z,1.20
2018-04-14T12:34:07.051Z,1.40
2018-04-14T12:35:07.124Z,1.20
2018-04-14T12:36:07.197Z,1.50
2018-04-14T12:37:07.270Z,1.60
2018-04-14T12:38:07.343Z,1.20
2018-04-14T12:39:07.416Z,1.00
2018-04-14T12:40:07.487Z,0.90
2018-04-14T12:41:07.558Z,1.00
2018-04-14T12:42:07.631Z,0.90
2018-04-14T12:43:07.703Z,1.10
2018-04-14T12:44:07.773Z,0.90
2018-04-14T12:45:07.844Z,0.90
2018-04-14T12:46:07.913Z,0.90
2018-04-14T12:47:07.986Z,0.90
2018-04-14T12:48:08.056Z,1.20
2018-04-14T12:49:08.128Z,0.90
2018-04-14T12:50:08.199Z,0.90
2018-04-14T12:51:08.270Z,1.10
2018-04-14T12:52:08.343Z,1.30
2018-04-14T12:53:08.666Z,1.10
2018-04-14T12:54:08.484Z,1.20
2018-04-14T12:55:08.556Z,1.10
2018-04-14T12:56:08.624Z,1.10
2018-04-14T12:57:08.696Z,1.50
2018-04-14T12:58:08.769Z,1.30
2018-04-14T12:59:08.838Z,1.30
2018-04-14T13:00:08.909Z,1.20
2018-04-14T13:01:08.980Z,1.60
2018-04-14T13:02:09.051Z,1.30
2018-04-14T13:03:09.120Z,1.40
2018-04-14T13:04:09.190Z,1.50
2018-04-14T13:05:09.260Z,1.40
2018-04-14T13:06:09.329Z,1.60
2018-04-14T13:07:09.399Z,1.20
2018-04-14T13:08:09.468Z,1.30
2018-04-14T13:09:09.538Z,1.50
2018-04-14T13:10:09.609Z,1.10
2018-04-14T13:11:09.677Z,0.90
2018-04-14T13:12:09.745Z,1.30
2018-04-14T13:13:09.815Z,1.10
2018-04-14T13:14:09.883Z,1.30
2018-04-14T13:15:09.954Z,1.20
2018-04-14T13:16:10.020Z,0.80
2018-04-14T13:17:10.090Z,1.10
2018-04-14T13:18:10.165Z,1.10
2018-04-14T13:19:10.243Z,1.20